Time;durP1;ratioP1;P1;durP2;ratioP2;P2;SDS_P1;SDS_P2;PMS_P1;PMS_P2;Temp;Humidity;BMP_temperature;BMP_pressure;BME280_temperature;BME280_humidity;BME280_pressure;Samples;Min_cycle;Max_cycle;Signal;HPM_P1;HPM_P2
2023/06/24 00:01:45;;;;;;;4.63;4.23;;;18.80;92.80;;;;;;10229597;28;20306;-70
2023/06/24 00:06:46;;;;;;;4.97;4.47;;;18.80;92.90;;;;;;10225435;28;20218;-70
2023/06/24 00:11:47;;;;;;;5.50;4.73;;;18.70;92.90;;;;;;10215741;28;20374;-70
2023/06/24 00:16:51;;;;;;;4.70;4.30;;;18.70;93.50;;;;;;10222319;28;20227;-70
2023/06/24 00:21:52;;;;;;;6.07;4.57;;;18.60;93.30;;;;;;10238740;28;20241;-70
2023/06/24 00:26:53;;;;;;;7.20;6.10;;;18.50;93.50;;;;;;10223122;28;20375;-71
2023/06/24 00:31:54;;;;;;;6.60;5.00;;;18.40;93.70;;;;;;10215434;28;20572;-70
2023/06/24 00:36:55;;;;;;;6.30;4.53;;;18.40;94.10;;;;;;10223264;28;20318;-70
2023/06/24 00:41:59;;;;;;;5.60;4.37;;;18.30;94.50;;;;;;10215400;28;20334;-71
2023/06/24 00:46:59;;;;;;;4.40;4.00;;;18.30;94.70;;;;;;10228892;28;20231;-71
2023/06/24 00:52:00;;;;;;;5.33;4.43;;;18.20;94.70;;;;;;10235946;28;20234;-70
2023/06/24 00:57:01;;;;;;;4.70;4.20;;;18.20;95.00;;;;;;10229384;28;20230;-70
2023/06/24 01:02:02;;;;;;;4.97;4.57;;;18.20;95.20;;;;;;10229014;28;20233;-74
2023/06/24 01:07:04;;;;;;;4.67;4.27;;;18.20;95.20;;;;;;10221246;28;20234;-74
2023/06/24 01:12:06;;;;;;;5.40;4.00;;;18.20;95.40;;;;;;10227842;28;20231;-75
2023/06/24 01:17:16;;;;;;;4.73;4.13;;;18.10;95.90;;;;;;10229446;28;20574;-74
2023/06/24 01:22:35;;;;;;;5.47;4.47;;;18.10;96.10;;;;;;10226408;28;20227;-74
2023/06/24 01:28:08;;;;;;;4.43;4.03;;;18.00;96.10;;;;;;10229058;28;20225;-74
2023/06/24 01:33:12;;;;;;;4.93;4.40;;;18.00;96.40;;;;;;10233389;28;20235;-73
2023/06/24 01:38:24;;;;;;;4.80;4.40;;;17.90;96.70;;;;;;10229601;28;20230;-73
2023/06/24 01:43:26;;;;;;;4.90;4.40;;;17.90;97.00;;;;;;10225255;28;20230;-74
2023/06/24 01:48:32;;;;;;;5.17;4.67;;;17.80;97.10;;;;;;10224663;28;20222;-74
2023/06/24 01:53:39;;;;;;;4.97;4.57;;;17.80;97.50;;;;;;10231871;28;20266;-73
2023/06/24 01:58:43;;;;;;;5.30;4.80;;;17.70;97.60;;;;;;10226844;28;20218;-73
2023/06/24 02:03:44;;;;;;;5.30;4.80;;;17.70;98.00;;;;;;10230191;28;20234;-73
2023/06/24 02:08:48;;;;;;;5.53;4.90;;;17.70;98.20;;;;;;10220566;28;20230;-74
2023/06/24 02:13:52;;;;;;;6.43;4.97;;;17.70;98.60;;;;;;10233500;28;20224;-74
2023/06/24 02:18:53;;;;;;;5.17;4.67;;;17.60;99.00;;;;;;10228898;28;20450;-74
2023/06/24 02:23:53;;;;;;;5.33;4.40;;;17.60;99.40;;;;;;10235712;28;20328;-75
2023/06/24 02:28:55;;;;;;;4.97;4.53;;;17.50;99.80;;;;;;10219736;28;20321;-74
2023/06/24 02:33:59;;;;;;;5.73;4.90;;;17.50;99.90;;;;;;10220044;28;20273;-75
2023/06/24 02:38:59;;;;;;;5.10;4.63;;;17.40;99.90;;;;;;10218821;28;20231;-73
2023/06/24 02:44:00;;;;;;;6.60;5.43;;;17.40;99.90;;;;;;10228501;28;20216;-73
2023/06/24 02:49:02;;;;;;;6.47;4.87;;;17.30;99.90;;;;;;10228295;28;20233;-74
2023/06/24 02:54:03;;;;;;;7.03;5.20;;;17.30;99.90;;;;;;10226345;28;20713;-73
2023/06/24 02:59:03;;;;;;;7.73;5.80;;;17.30;99.90;;;;;;10226321;28;20264;-73
2023/06/24 03:04:05;;;;;;;5.73;5.23;;;17.30;99.90;;;;;;10224383;28;20303;-74
2023/06/24 03:09:07;;;;;;;7.53;5.20;;;17.30;99.90;;;;;;10219980;28;20230;-73
2023/06/24 03:14:08;;;;;;;5.90;5.30;;;17.30;99.90;;;;;;10231175;28;20245;-74
2023/06/24 03:19:09;;;;;;;7.30;5.50;;;17.30;99.90;;;;;;10218875;28;20294;-74
2023/06/24 03:24:09;;;;;;;7.30;4.97;;;17.30;99.90;;;;;;10231355;28;20222;-74
2023/06/24 03:29:11;;;;;;;5.97;5.17;;;17.30;99.90;;;;;;10220060;28;20226;-74
2023/06/24 03:34:11;;;;;;;5.77;5.20;;;17.30;99.90;;;;;;10233855;28;20244;-73
2023/06/24 03:39:18;;;;;;;6.40;5.07;;;17.30;99.90;;;;;;10224241;28;20229;-73
2023/06/24 03:44:20;;;;;;;6.00;5.23;;;17.40;99.90;;;;;;10221638;28;20222;-73
2023/06/24 03:49:20;;;;;;;4.87;4.47;;;17.50;99.90;;;;;;10229231;28;20239;-74
2023/06/24 03:54:21;;;;;;;5.83;5.23;;;17.60;99.90;;;;;;10225333;28;20249;-74
2023/06/24 03:59:21;;;;;;;5.47;4.93;;;17.60;99.90;;;;;;10230542;28;20592;-73
2023/06/24 04:04:23;;;;;;;6.27;4.83;;;17.70;99.90;;;;;;10220392;28;20223;-74
2023/06/24 04:09:23;;;;;;;5.93;4.67;;;17.80;99.90;;;;;;10228733;28;20254;-73
2023/06/24 04:14:24;;;;;;;5.27;4.60;;;18.00;99.90;;;;;;10225220;28;20655;-74
2023/06/24 04:19:25;;;;;;;5.37;4.90;;;18.30;99.90;;;;;;10228233;28;20223;-74
2023/06/24 04:24:25;;;;;;;5.57;5.07;;;18.40;99.90;;;;;;10220865;28;20226;-73
2023/06/24 04:29:26;;;;;;;4.87;4.37;;;18.60;99.90;;;;;;10225837;28;20294;-73
2023/06/24 04:34:26;;;;;;;5.80;4.83;;;18.80;99.90;;;;;;10227377;28;20244;-74
2023/06/24 04:39:30;;;;;;;6.57;4.93;;;19.00;99.90;;;;;;10231389;28;20227;-73
2023/06/24 04:44:30;;;;;;;5.47;4.73;;;19.40;99.90;;;;;;10231425;28;20303;-73
2023/06/24 04:49:31;;;;;;;5.57;5.07;;;19.60;99.90;;;;;;10236576;28;20242;-72
2023/06/24 04:54:32;;;;;;;5.80;5.10;;;19.70;99.90;;;;;;10236977;28;20224;-74
2023/06/24 04:59:36;;;;;;;5.83;5.33;;;19.70;99.90;;;;;;10228269;28;20231;-73
2023/06/24 05:04:36;;;;;;;5.57;5.00;;;19.80;99.90;;;;;;10226020;28;20311;-74
2023/06/24 05:09:37;;;;;;;6.23;4.83;;;20.80;99.30;;;;;;10222310;28;20343;-74
2023/06/24 05:14:38;;;;;;;5.27;4.70;;;23.50;94.30;;;;;;10227747;28;20581;-74
2023/06/24 05:19:39;;;;;;;7.13;5.00;;;26.10;87.80;;;;;;10235965;28;20233;-75
2023/06/24 05:24:41;;;;;;;5.43;4.70;;;27.90;77.10;;;;;;10227030;28;20229;-73
2023/06/24 05:29:41;;;;;;;8.23;4.63;;;28.90;71.20;;;;;;10230195;28;20659;-73
2023/06/24 05:34:42;;;;;;;5.80;5.20;;;30.00;65.80;;;;;;10226655;28;20219;-74
2023/06/24 05:39:42;;;;;;;5.10;4.63;;;30.80;62.20;;;;;;10239543;28;20220;-74
2023/06/24 05:44:43;;;;;;;6.27;4.80;;;31.40;59.40;;;;;;10226593;28;20216;-74
2023/06/24 05:49:43;;;;;;;7.40;5.53;;;32.30;57.20;;;;;;10227139;28;20230;-74
2023/06/24 05:54:44;;;;;;;4.73;4.33;;;32.70;54.90;;;;;;10234159;28;20238;-75
2023/06/24 05:59:51;;;;;;;5.53;4.00;;;33.10;54.20;;;;;;10221987;28;20710;-74
2023/06/24 06:04:51;;;;;;;5.10;3.90;;;33.40;53.30;;;;;;10227046;28;20250;-74
2023/06/24 06:09:52;;;;;;;5.23;4.10;;;34.10;52.10;;;;;;10234977;28;20233;-75
2023/06/24 06:14:52;;;;;;;5.20;4.23;;;34.50;50.30;;;;;;10227201;28;20231;-75
2023/06/24 06:19:53;;;;;;;4.23;3.90;;;35.10;49.60;;;;;;10227322;28;20238;-75
2023/06/24 06:24:53;;;;;;;6.93;4.60;;;36.00;48.40;;;;;;10234287;28;20245;-73
2023/06/24 06:29:54;;;;;;;4.73;3.47;;;36.30;46.40;;;;;;10219808;28;20266;-74
2023/06/24 06:34:54;;;;;;;4.83;3.70;;;36.70;46.20;;;;;;10227249;28;20686;-74
2023/06/24 06:39:55;;;;;;;8.77;4.77;;;36.60;45.80;;;;;;10219470;28;20246;-74
2023/06/24 06:44:58;;;;;;;4.50;4.10;;;37.20;44.80;;;;;;10226500;28;20215;-74
2023/06/24 06:49:59;;;;;;;6.13;4.60;;;37.20;44.50;;;;;;10216284;28;20267;-73
2023/06/24 06:55:00;;;;;;;5.97;4.77;;;37.80;43.00;;;;;;10241533;28;20247;-73
2023/06/24 07:00:00;;;;;;;5.43;4.83;;;37.80;42.10;;;;;;10218449;28;20232;-74
2023/06/24 07:05:02;;;;;;;5.27;4.77;;;38.10;41.60;;;;;;10234184;28;20301;-73
2023/06/24 07:10:02;;;;;;;5.37;4.33;;;38.70;41.00;;;;;;10225801;28;20269;-75
2023/06/24 07:15:03;;;;;;;6.33;4.27;;;38.90;39.80;;;;;;10218454;28;20231;-74
2023/06/24 07:20:05;;;;;;;5.63;4.80;;;39.10;39.40;;;;;;10217872;28;20232;-74
2023/06/24 07:25:05;;;;;;;5.57;5.07;;;39.80;38.70;;;;;;10224242;28;20677;-74
2023/06/24 07:30:06;;;;;;;4.80;4.37;;;40.30;37.80;;;;;;10230307;28;20215;-74
2023/06/24 07:35:07;;;;;;;5.17;4.67;;;40.80;36.70;;;;;;10224041;28;20353;-74
2023/06/24 07:40:08;;;;;;;5.80;4.73;;;41.10;36.00;;;;;;10217674;28;20191;-74
2023/06/24 07:45:09;;;;;;;5.07;4.57;;;41.00;36.40;;;;;;10225697;28;20674;-75
2023/06/24 07:50:10;;;;;;;5.33;4.23;;;41.50;35.40;;;;;;10225476;28;20227;-74
2023/06/24 07:55:11;;;;;;;5.80;4.57;;;41.80;35.40;;;;;;10223491;28;20207;-75
2023/06/24 08:00:13;;;;;;;5.03;4.53;;;42.10;34.80;;;;;;10223805;28;20217;-75
2023/06/24 08:05:13;;;;;;;4.85;4.45;;;42.80;33.60;;;;;;10231605;28;20219;-75
2023/06/24 08:10:14;;;;;;;4.78;4.28;;;43.10;33.40;;;;;;10233502;28;20732;-77
2023/06/24 08:15:14;;;;;;;5.60;4.30;;;43.00;33.10;;;;;;10212839;28;20191;-75
2023/06/24 08:20:15;;;;;;;4.38;4.03;;;42.70;33.20;;;;;;10232049;28;20298;-75
2023/06/24 08:25:16;;;;;;;45.00;6.43;;;43.20;32.50;;;;;;10224044;28;20189;-75
2023/06/24 08:30:17;;;;;;;5.20;4.70;;;43.30;33.50;;;;;;10235554;28;20257;-75
2023/06/24 08:35:17;;;;;;;4.32;4.03;;;43.80;31.90;;;;;;10225751;28;20266;-74
2023/06/24 08:40:21;;;;;;;4.50;4.10;;;44.50;30.60;;;;;;10227819;28;20214;-75
2023/06/24 08:45:21;;;;;;;4.35;3.90;;;44.50;30.20;;;;;;10226662;28;20211;-77
2023/06/24 08:50:26;;;;;;;4.68;4.30;;;43.90;30.20;;;;;;10230619;28;20237;-75
2023/06/24 08:55:28;;;;;;;4.00;3.60;;;42.20;31.60;;;;;;10226137;28;20220;-74
2023/06/24 09:00:29;;;;;;;4.22;3.90;;;43.60;31.10;;;;;;10251842;28;20282;-75
2023/06/24 09:05:30;;;;;;;5.68;3.85;;;44.70;29.20;;;;;;10232627;28;20325;-75
2023/06/24 09:10:32;;;;;;;5.20;4.22;;;45.60;28.90;;;;;;10224020;28;20274;-76
2023/06/24 09:15:33;;;;;;;4.07;3.78;;;46.00;28.40;;;;;;10225305;28;20593;-75
2023/06/24 09:20:39;;;;;;;5.57;4.32;;;45.60;29.20;;;;;;10224029;28;20306;-75
2023/06/24 09:25:40;;;;;;;6.28;5.00;;;45.30;28.50;;;;;;10226237;28;20265;-76
2023/06/24 09:30:40;;;;;;;5.82;5.07;;;44.80;28.40;;;;;;10226482;28;20605;-75
2023/06/24 09:35:42;;;;;;;5.90;5.40;;;45.10;29.00;;;;;;10233450;28;20245;-74
2023/06/24 09:40:45;;;;;;;4.53;4.15;;;46.10;27.80;;;;;;10221932;28;20224;-75
2023/06/24 09:45:49;;;;;;;5.47;5.07;;;46.40;27.60;;;;;;10233956;28;20289;-75
2023/06/24 09:50:50;;;;;;;5.07;4.40;;;47.00;26.70;;;;;;10218281;28;20219;-74
2023/06/24 09:55:53;;;;;;;4.55;4.15;;;45.60;27.50;;;;;;10220042;28;20255;-75
2023/06/24 10:00:55;;;;;;;7.18;4.50;;;44.20;27.90;;;;;;10227112;28;20311;-75
2023/06/24 10:05:55;;;;;;;4.80;4.40;;;43.10;28.80;;;;;;10226783;28;20307;-74
2023/06/24 10:11:00;;;;;;;5.38;4.32;;;44.10;28.60;;;;;;10226367;28;20766;-75
2023/06/24 10:16:01;;;;;;;3.97;3.67;;;45.70;27.40;;;;;;10228508;28;20310;-74
2023/06/24 10:21:02;;;;;;;4.22;3.90;;;46.50;26.20;;;;;;10225395;28;20608;-75
2023/06/24 10:26:08;;;;;;;4.18;3.78;;;46.70;26.60;;;;;;10218527;28;20223;-74
2023/06/24 10:31:08;;;;;;;4.63;4.30;;;47.90;25.90;;;;;;10224087;28;20223;-75
2023/06/24 10:36:32;;;;;;;4.68;4.22;;;47.30;26.10;;;;;;10217959;28;20724;-75
2023/06/24 10:41:32;;;;;;;6.10;4.00;;;44.50;26.00;;;;;;10221378;28;20671;-74
2023/06/24 10:46:33;;;;;;;4.68;4.22;;;44.10;27.10;;;;;;10222709;28;20226;-74
2023/06/24 10:51:33;;;;;;;7.07;5.18;;;43.70;27.50;;;;;;10220853;28;20687;-75
2023/06/24 10:56:34;;;;;;;5.50;4.63;;;42.30;28.60;;;;;;10229447;28;20376;-74
2023/06/24 11:01:52;;;;;;;4.80;4.32;;;40.60;29.90;;;;;;10249259;28;20226;-74
2023/06/24 11:07:00;;;;;;;5.03;4.53;;;42.10;29.80;;;;;;10243901;28;20221;-73
2023/06/24 11:12:03;;;;;;;4.37;3.97;;;41.10;30.40;;;;;;10218425;28;20223;-74
2023/06/24 11:17:04;;;;;;;11.47;4.23;;;38.20;33.60;;;;;;10216449;28;20224;-73
2023/06/24 11:22:06;;;;;;;4.50;4.10;;;39.10;33.60;;;;;;10216751;28;20775;-74
2023/06/24 11:27:07;;;;;;;5.90;4.00;;;39.40;31.30;;;;;;10222950;28;20225;-74
2023/06/24 11:32:09;;;;;;;4.50;4.10;;;40.70;30.10;;;;;;10224449;28;20223;-74
2023/06/24 11:37:15;;;;;;;4.77;4.33;;;42.80;28.90;;;;;;10219625;28;20234;-74
2023/06/24 11:42:15;;;;;;;4.07;3.60;;;42.50;29.00;;;;;;10228058;28;20242;-75
2023/06/24 11:47:23;;;;;;;9.10;3.77;;;39.90;31.30;;;;;;10218173;28;20695;-74
2023/06/24 11:52:45;;;;;;;3.97;3.63;;;37.80;33.60;;;;;;10218722;28;20252;-73
2023/06/24 11:57:57;;;;;;;4.10;3.70;;;35.70;34.90;;;;;;10221642;28;20310;-74
2023/06/24 12:03:00;;;;;;;4.20;3.53;;;34.00;37.60;;;;;;10223119;28;20330;-74
2023/06/24 12:08:09;;;;;;;4.70;3.73;;;33.30;38.20;;;;;;10225070;28;20313;-74
2023/06/24 12:13:10;;;;;;;3.90;3.50;;;33.00;38.90;;;;;;10224001;28;20658;-73
2023/06/24 12:18:12;;;;;;;3.57;3.27;;;32.80;38.70;;;;;;10226821;28;20239;-75
2023/06/24 12:23:12;;;;;;;5.80;3.37;;;32.40;38.20;;;;;;10217088;28;20263;-74
2023/06/24 12:28:13;;;;;;;3.87;3.33;;;31.90;39.20;;;;;;10214816;28;20235;-73
2023/06/24 12:33:13;;;;;;;4.43;3.20;;;32.20;39.20;;;;;;10220573;28;20257;-74
2023/06/24 12:38:15;;;;;;;4.27;3.43;;;32.30;39.20;;;;;;10216911;28;20232;-75
2023/06/24 12:43:16;;;;;;;5.67;3.87;;;32.20;39.50;;;;;;10220496;28;20258;-74
2023/06/24 12:48:17;;;;;;;4.53;3.60;;;31.30;40.40;;;;;;10218645;28;20243;-74
2023/06/24 12:53:17;;;;;;;5.40;3.63;;;30.50;42.70;;;;;;10241533;28;20314;-74
2023/06/24 12:58:24;;;;;;;3.87;3.50;;;30.80;41.40;;;;;;10223045;28;20765;-74
2023/06/24 13:03:25;;;;;;;5.83;4.30;;;31.40;41.10;;;;;;10224996;28;20737;-73
2023/06/24 13:08:25;;;;;;;3.77;3.47;;;31.90;39.60;;;;;;10224846;28;20231;-74
2023/06/24 13:13:26;;;;;;;3.73;3.40;;;32.00;39.60;;;;;;10223595;28;20251;-74
2023/06/24 13:18:27;;;;;;;4.67;3.57;;;31.70;40.00;;;;;;10224862;28;20226;-74
2023/06/24 13:23:27;;;;;;;4.50;3.40;;;31.60;39.60;;;;;;10225068;28;20327;-74
2023/06/24 13:28:28;;;;;;;4.93;3.80;;;32.00;39.50;;;;;;10223945;28;20774;-75
2023/06/24 13:33:29;;;;;;;4.47;3.67;;;31.80;39.90;;;;;;10224146;28;20223;-74
2023/06/24 13:38:30;;;;;;;4.30;3.90;;;31.30;40.80;;;;;;10224453;28;20238;-74
2023/06/24 13:43:30;;;;;;;4.20;3.80;;;30.60;41.90;;;;;;10227398;28;20238;-74
2023/06/24 13:48:31;;;;;;;4.50;4.10;;;30.00;43.10;;;;;;10228834;28;20219;-73
2023/06/24 13:53:31;;;;;;;7.10;3.77;;;29.60;43.70;;;;;;10223155;28;20228;-74
2023/06/24 13:58:32;;;;;;;3.87;3.50;;;29.40;43.30;;;;;;10223191;28;20259;-75
2023/06/24 14:03:32;;;;;;;4.23;3.80;;;29.30;43.50;;;;;;10225101;28;20232;-74
2023/06/24 14:08:34;;;;;;;4.00;3.60;;;29.40;43.20;;;;;;10226254;28;20684;-74
2023/06/24 14:13:36;;;;;;;4.00;3.60;;;30.00;42.20;;;;;;10235563;28;20735;-74
2023/06/24 14:18:37;;;;;;;3.43;3.13;;;30.80;41.10;;;;;;10215337;28;20322;-74
2023/06/24 14:23:40;;;;;;;5.10;4.20;;;31.60;40.50;;;;;;10220640;28;20318;-74
2023/06/24 14:28:40;;;;;;;4.60;3.90;;;31.70;39.90;;;;;;10226146;28;20692;-74
2023/06/24 14:33:41;;;;;;;8.50;4.00;;;31.60;40.50;;;;;;10223384;28;20230;-74
2023/06/24 14:38:42;;;;;;;4.33;3.97;;;31.20;42.00;;;;;;10229952;28;20223;-74
2023/06/24 14:43:46;;;;;;;5.90;3.90;;;30.70;42.90;;;;;;10231471;28;20235;-73
2023/06/24 14:48:47;;;;;;;4.03;3.63;;;30.30;43.40;;;;;;10223704;28;20246;-74
2023/06/24 14:53:47;;;;;;;4.67;4.27;;;30.20;44.20;;;;;;10225980;28;20331;-74
2023/06/24 14:58:48;;;;;;;5.33;3.90;;;30.20;44.20;;;;;;10223190;28;20238;-74
2023/06/24 15:03:48;;;;;;;4.77;4.30;;;30.20;44.00;;;;;;10218227;28;20679;-74
2023/06/24 15:08:50;;;;;;;5.93;4.30;;;30.20;44.20;;;;;;10216747;28;20235;-73
2023/06/24 15:13:51;;;;;;;5.83;4.57;;;30.40;43.50;;;;;;10221824;28;20655;-73
2023/06/24 15:18:52;;;;;;;4.47;4.07;;;30.30;43.20;;;;;;10215652;28;20646;-74
2023/06/24 15:23:52;;;;;;;5.63;4.60;;;30.40;43.10;;;;;;10218406;28;20274;-74
2023/06/24 15:28:53;;;;;;;7.33;4.33;;;30.50;43.40;;;;;;10227389;28;20635;-75
2023/06/24 15:33:54;;;;;;;11.70;4.87;;;30.50;43.20;;;;;;10230827;28;20306;-74
2023/06/24 15:38:55;;;;;;;4.53;4.07;;;30.60;43.30;;;;;;10247051;28;20311;-74
2023/06/24 15:43:56;;;;;;;6.33;4.53;;;30.50;43.50;;;;;;10224565;28;20605;-74
2023/06/24 15:48:57;;;;;;;6.77;4.40;;;30.20;44.10;;;;;;10224233;28;20281;-75
2023/06/24 15:54:00;;;;;;;5.03;4.53;;;30.10;44.60;;;;;;10216353;28;20235;-73
2023/06/24 15:59:01;;;;;;;4.93;4.47;;;30.00;44.90;;;;;;10229156;28;20302;-74
2023/06/24 16:04:03;;;;;;;4.50;4.10;;;29.90;43.60;;;;;;10227411;28;20234;-74
2023/06/24 16:09:03;;;;;;;4.53;4.13;;;29.90;43.80;;;;;;10230036;28;20230;-74
2023/06/24 16:14:04;;;;;;;7.33;4.50;;;29.70;43.70;;;;;;10230632;28;20695;-74
2023/06/24 16:19:05;;;;;;;5.27;4.27;;;29.50;44.30;;;;;;10216173;28;20230;-74
2023/06/24 16:24:05;;;;;;;6.33;4.70;;;29.20;45.10;;;;;;10220324;28;20223;-74
2023/06/24 16:29:06;;;;;;;5.93;4.63;;;29.20;45.40;;;;;;10228851;28;20588;-73
2023/06/24 16:34:07;;;;;;;4.80;4.27;;;29.00;45.90;;;;;;10222853;28;20262;-74
2023/06/24 16:39:08;;;;;;;5.27;4.40;;;29.20;45.90;;;;;;10228022;28;20271;-74
2023/06/24 16:44:08;;;;;;;4.93;4.43;;;29.10;45.90;;;;;;10222854;28;20231;-74
2023/06/24 16:49:09;;;;;;;5.73;4.23;;;28.90;46.20;;;;;;10236467;28;20674;-73
2023/06/24 16:54:09;;;;;;;5.77;4.57;;;29.00;46.60;;;;;;10229718;28;20232;-74
2023/06/24 16:59:10;;;;;;;5.67;4.30;;;28.90;46.60;;;;;;10234024;28;20228;-74
2023/06/24 17:04:13;;;;;;;4.93;4.53;;;28.90;46.60;;;;;;10221516;28;20220;-75
2023/06/24 17:09:14;;;;;;;4.43;4.03;;;28.70;46.70;;;;;;10221315;28;20239;-73
2023/06/24 17:14:15;;;;;;;4.50;4.10;;;28.50;47.10;;;;;;10229327;28;20620;-75
2023/06/24 17:19:15;;;;;;;4.70;4.30;;;28.60;47.00;;;;;;10225962;28;20682;-73
2023/06/24 17:24:19;;;;;;;6.23;4.30;;;28.50;46.50;;;;;;10222464;28;20673;-75
2023/06/24 17:29:19;;;;;;;5.47;4.97;;;28.40;47.30;;;;;;10240792;28;20230;-74
2023/06/24 17:34:20;;;;;;;8.23;6.77;;;28.30;48.00;;;;;;10231766;28;20579;-75
2023/06/24 17:39:20;;;;;;;7.33;6.63;;;28.20;47.20;;;;;;10229614;28;20310;-74
2023/06/24 17:44:21;;;;;;;6.03;4.40;;;28.20;47.20;;;;;;10224925;28;20706;-74
2023/06/24 17:49:22;;;;;;;5.67;4.03;;;28.10;47.40;;;;;;10219278;28;20254;-75
2023/06/24 17:54:22;;;;;;;8.00;5.23;;;28.00;47.90;;;;;;10226143;28;20241;-74
2023/06/24 17:59:23;;;;;;;8.07;4.83;;;27.90;47.50;;;;;;10232965;28;20231;-74
2023/06/24 18:04:23;;;;;;;5.80;4.33;;;27.90;47.70;;;;;;10219306;28;20764;-74
2023/06/24 18:09:24;;;;;;;4.93;4.50;;;27.90;48.20;;;;;;10231083;28;20230;-74
2023/06/24 18:14:25;;;;;;;4.67;4.27;;;27.80;48.20;;;;;;10222540;28;20275;-74
2023/06/24 18:19:25;;;;;;;6.37;4.40;;;27.80;48.10;;;;;;10226555;28;20238;-74
2023/06/24 18:24:26;;;;;;;5.40;4.30;;;27.70;48.50;;;;;;10221412;28;20235;-73
2023/06/24 18:29:26;;;;;;;4.97;4.47;;;27.70;48.80;;;;;;10222511;28;20306;-73
2023/06/24 18:34:27;;;;;;;4.97;4.50;;;27.50;48.40;;;;;;10229356;28;20219;-74
2023/06/24 18:39:30;;;;;;;5.03;4.10;;;27.50;49.20;;;;;;10222766;28;20255;-73
2023/06/24 18:44:31;;;;;;;4.60;4.20;;;27.40;49.70;;;;;;10221342;28;20220;-74
2023/06/24 18:49:31;;;;;;;4.93;4.43;;;27.30;49.30;;;;;;10247695;28;20922;-73
2023/06/24 18:54:32;;;;;;;4.90;4.40;;;27.20;49.60;;;;;;10229938;28;20241;-74
2023/06/24 18:59:33;;;;;;;7.10;4.47;;;27.10;50.40;;;;;;10225383;28;20219;-76
2023/06/24 19:04:33;;;;;;;4.70;4.30;;;26.90;50.80;;;;;;10227645;28;20277;-75
2023/06/24 19:09:34;;;;;;;5.60;4.80;;;26.80;51.40;;;;;;10228439;28;20236;-74
2023/06/24 19:14:35;;;;;;;6.00;4.77;;;26.70;52.70;;;;;;10226980;28;20231;-74
2023/06/24 19:19:35;;;;;;;5.23;4.43;;;26.50;52.60;;;;;;10221622;28;20231;-73
2023/06/24 19:24:37;;;;;;;6.13;5.07;;;26.30;53.10;;;;;;10220261;28;20220;-73
2023/06/24 19:29:37;;;;;;;6.90;5.10;;;26.20;53.70;;;;;;10222310;28;20218;-73
2023/06/24 19:34:38;;;;;;;5.10;4.67;;;26.00;54.20;;;;;;10230205;28;20216;-75
2023/06/24 19:39:39;;;;;;;6.83;5.30;;;25.80;54.90;;;;;;10233943;28;20930;-74
2023/06/24 19:44:39;;;;;;;7.03;5.30;;;25.60;55.80;;;;;;10224954;28;20211;-75
2023/06/24 19:49:53;;;;;;;5.67;5.17;;;25.50;56.30;;;;;;10218938;28;20717;-75
2023/06/24 19:54:54;;;;;;;8.13;5.53;;;25.30;56.90;;;;;;10214913;28;20335;-75
2023/06/24 19:59:54;;;;;;;8.97;5.00;;;25.10;57.70;;;;;;10236245;28;20754;-74
2023/06/24 20:04:55;;;;;;;7.93;5.50;;;24.90;58.80;;;;;;10233741;28;20267;-74
2023/06/24 20:09:55;;;;;;;6.47;5.30;;;24.80;58.60;;;;;;10239291;28;20514;-73
2023/06/24 20:14:56;;;;;;;6.83;5.00;;;24.70;58.90;;;;;;10223438;28;20251;-76
2023/06/24 20:19:57;;;;;;;6.77;4.73;;;24.60;59.30;;;;;;10230614;28;20318;-74
2023/06/24 20:24:57;;;;;;;7.87;5.17;;;24.60;59.80;;;;;;10221751;28;20283;-74
2023/06/24 20:29:58;;;;;;;6.83;4.93;;;24.50;60.30;;;;;;10229652;28;20777;-75
2023/06/24 20:34:58;;;;;;;5.90;5.30;;;24.50;60.60;;;;;;10230117;28;20225;-73
2023/06/24 20:39:59;;;;;;;5.30;4.80;;;24.50;60.70;;;;;;10220896;28;20227;-74
2023/06/24 20:44:59;;;;;;;5.67;5.13;;;24.40;61.20;;;;;;10233580;28;20223;-75
2023/06/24 20:50:00;;;;;;;5.97;5.20;;;24.30;61.00;;;;;;10220413;28;20224;-74
2023/06/24 20:55:02;;;;;;;7.23;5.40;;;24.30;61.00;;;;;;10228681;28;20355;-75
2023/06/24 21:00:03;;;;;;;8.87;5.07;;;24.20;61.30;;;;;;10227883;28;20242;-75
2023/06/24 21:05:04;;;;;;;5.03;4.53;;;24.00;61.80;;;;;;10228019;28;20738;-73
2023/06/24 21:10:05;;;;;;;5.30;4.80;;;23.90;62.00;;;;;;10221188;28;20227;-73
2023/06/24 21:15:06;;;;;;;9.10;5.47;;;23.90;63.40;;;;;;10227809;28;20260;-74
2023/06/24 21:20:08;;;;;;;7.80;6.67;;;23.80;62.80;;;;;;10227610;28;20214;-74
2023/06/24 21:25:08;;;;;;;7.40;5.83;;;23.80;62.70;;;;;;10221669;28;20237;-74
2023/06/24 21:30:09;;;;;;;6.23;5.63;;;23.80;62.90;;;;;;10234381;28;20319;-72
2023/06/24 21:35:10;;;;;;;5.80;5.20;;;23.70;64.00;;;;;;10226474;28;20182;-73
2023/06/24 21:40:11;;;;;;;6.00;5.47;;;23.60;63.50;;;;;;10239891;28;20252;-73
2023/06/24 21:45:12;;;;;;;6.30;5.27;;;23.60;63.80;;;;;;10228647;28;20221;-74
2023/06/24 21:50:13;;;;;;;6.17;4.83;;;23.50;64.10;;;;;;10228257;28;20221;-75
2023/06/24 21:55:13;;;;;;;7.97;5.50;;;23.50;64.60;;;;;;10225770;28;20204;-74
2023/06/24 22:00:18;;;;;;;6.33;5.37;;;23.50;66.00;;;;;;10234242;28;20192;-74
2023/06/24 22:05:18;;;;;;;6.73;5.60;;;23.40;65.30;;;;;;10225211;28;20192;-73
2023/06/24 22:10:19;;;;;;;7.53;5.23;;;23.20;65.70;;;;;;10225137;28;20222;-74
2023/06/24 22:15:20;;;;;;;6.07;5.37;;;23.10;66.00;;;;;;10227314;28;20905;-77
2023/06/24 22:20:20;;;;;;;5.53;5.03;;;23.10;66.10;;;;;;10224360;28;20207;-75
2023/06/24 22:25:21;;;;;;;5.67;5.10;;;23.00;66.30;;;;;;10222449;28;20187;-74
2023/06/24 22:30:21;;;;;;;6.03;5.43;;;23.00;66.60;;;;;;10224153;28;20252;-74
2023/06/24 22:35:23;;;;;;;6.40;5.60;;;23.00;67.20;;;;;;10221705;28;20665;-75
2023/06/24 22:40:24;;;;;;;6.50;5.57;;;22.90;67.30;;;;;;10229965;28;20655;-75
2023/06/24 22:45:25;;;;;;;6.47;5.77;;;22.80;67.40;;;;;;10223762;28;20192;-73
2023/06/24 22:50:26;;;;;;;6.80;5.67;;;22.70;67.50;;;;;;10229050;28;20238;-75
2023/06/24 22:55:26;;;;;;;6.10;5.50;;;22.70;68.70;;;;;;10228184;28;20255;-75
2023/06/24 23:00:27;;;;;;;6.73;6.03;;;22.60;69.50;;;;;;10226291;28;20752;-74
2023/06/24 23:05:28;;;;;;;6.93;6.03;;;22.50;70.30;;;;;;10222804;28;20239;-74
2023/06/24 23:10:29;;;;;;;6.20;5.60;;;22.40;71.00;;;;;;10229473;28;20314;-74
2023/06/24 23:15:30;;;;;;;5.80;5.27;;;22.30;71.80;;;;;;10222488;28;20316;-74
2023/06/24 23:20:31;;;;;;;6.07;5.47;;;22.30;70.20;;;;;;10228922;28;20192;-74
2023/06/24 23:25:32;;;;;;;5.37;4.87;;;22.20;69.40;;;;;;10223272;28;20227;-74
2023/06/24 23:30:35;;;;;;;6.93;5.00;;;22.30;69.90;;;;;;10220932;28;20236;-75
2023/06/24 23:35:36;;;;;;;5.87;4.90;;;22.30;69.50;;;;;;10222737;28;20219;-73
2023/06/24 23:40:37;;;;;;;6.40;4.50;;;22.30;69.70;;;;;;10226587;28;20309;-74
2023/06/24 23:45:38;;;;;;;5.23;4.73;;;22.20;69.30;;;;;;10226705;28;20302;-74
2023/06/24 23:50:38;;;;;;;5.80;4.60;;;22.30;69.30;;;;;;10239852;28;20717;-74
2023/06/24 23:55:39;;;;;;;5.27;4.73;;;22.20;69.60;;;;;;10220094;28;20236;-73
